PWSweather.com
Personal Weather Stations
Station Observations
SBERGENWX
Wood Ridge, NJ 07075

Wood Ridge, NJ 07075

Lat: 40.851667, Lon: -74.088131

Elevation: 177

Station Type: Davis Vantage Vue

http://201weather.com/

High Low Average
Temperature 57.4°F14.1°C 38.0°F3.3°C 48.0°F8.9°C
Dew Point 52.7°F11.5°C 27.7°F-2.4°C 40.4°F4.7°C
Winds 9.2 mph 14.8 kmh Calm Calm 2.0 mph W3.2 kmh W
Wind Gusts 21.9 mph35.2 kmh -- 5.0 mph8.0 kmh
Humidity 97% 56% 76%
Pressure 30.16 in1021.3 mb 29.60 in1002.4 mb -
Precipitation 0.08 in2.0 mm - -
Hour Temp Dew Point Humidity Winds Wind Gusts Pressure Precip Precip Rate Daily Precip Total
12:00 AM 44.5°F6.9°C 43.2°F6.2°C 95% 1.2 mph SE1.9 kmh SE 1.2 mph1.9 kmh 29.86 in1011.2 mb - 0.13 in3.3 mm 0.92 in23.4 mm
12:15 AM 44.7°F7.1°C 43.6°F6.4°C 96% 1.2 mph SE1.9 kmh SE 3.5 mph5.6 kmh 29.83 in1010.2 mb - 0.14 in3.6 mm 0.96 in24.4 mm
12:30 AM 44.9°F7.2°C 43.8°F6.6°C 96% 1.2 mph SSE1.9 kmh SSE 3.5 mph5.6 kmh 29.82 in1009.8 mb - 0.15 in3.8 mm 1.01 in25.7 mm
12:45 AM 45.1°F7.3°C 44.0°F6.7°C 96% Calm Calm 1.2 mph1.9 kmh 29.80 in1009.1 mb - 0.17 in4.3 mm 1.05 in26.7 mm
01:00 AM 45.3°F7.4°C 44.2°F6.8°C 96% Calm Calm -- 29.79 in1008.8 mb - 0.15 in3.8 mm 0.74 in18.8 mm
01:15 AM 45.3°F7.4°C 44.2°F6.8°C 96% Calm Calm -- 29.77 in1008.1 mb - 0.13 in3.3 mm 0.02 in0.5 mm
01:30 AM 44.9°F7.2°C 43.8°F6.6°C 96% Calm Calm -- 29.76 in1007.8 mb - 0.09 in2.3 mm 0.03 in0.8 mm
01:45 AM 44.8°F7.1°C 43.7°F6.5°C 96% Calm Calm -- 29.75 in1007.5 mb - 0.06 in1.5 mm 0.03 in0.8 mm
02:00 AM 44.6°F7.0°C 43.6°F6.4°C 96% Calm Calm -- 29.74 in1007.1 mb - 0.03 in0.8 mm 0.03 in0.8 mm
02:15 AM 44.5°F6.9°C 43.4°F6.3°C 96% Calm Calm -- 29.71 in1006.1 mb - 0.04 in1.0 mm 0.05 in1.3 mm
02:30 AM 44.6°F7.0°C 43.5°F6.4°C 96% Calm Calm -- 29.70 in1005.8 mb - 0.03 in0.8 mm 0.06 in1.5 mm
02:45 AM 44.9°F7.2°C 43.8°F6.6°C 96% Calm Calm -- 29.69 in1005.4 mb - 0.03 in0.8 mm 0.06 in1.5 mm
03:00 AM 45.5°F7.5°C 44.7°F7.1°C 97% Calm Calm 1.2 mph1.9 kmh 29.67 in1004.7 mb - 0.03 in0.8 mm 0.06 in1.5 mm
03:15 AM 45.7°F7.6°C 44.9°F7.2°C 97% Calm Calm 1.2 mph1.9 kmh 29.64 in1003.7 mb - 0.01 in0.3 mm 0.06 in1.5 mm
03:30 AM 45.6°F7.6°C 44.8°F7.1°C 97% Calm Calm 1.2 mph1.9 kmh 29.63 in1003.4 mb - 0.00 in0.0 mm 0.06 in1.5 mm
03:45 AM 45.9°F7.7°C 45.1°F7.3°C 97% Calm Calm 2.3 mph3.7 kmh 29.63 in1003.4 mb - 0.00 in0.0 mm 0.06 in1.5 mm
04:00 AM 46.5°F8.1°C 45.7°F7.6°C 97% Calm Calm 3.5 mph5.6 kmh 29.65 in1004.1 mb - 0.00 in0.0 mm 0.06 in1.5 mm
04:15 AM 46.6°F8.1°C 45.8°F7.7°C 97% Calm Calm 1.2 mph1.9 kmh 29.64 in1003.7 mb - 0.00 in0.0 mm 0.06 in1.5 mm
04:30 AM 47.0°F8.3°C 46.2°F7.9°C 97% Calm Calm 2.3 mph3.7 kmh 29.63 in1003.4 mb - 0.01 in0.3 mm 0.07 in1.8 mm
04:45 AM 48.9°F9.4°C 48.0°F8.9°C 97% 2.3 mph WSW3.7 kmh WSW 4.6 mph7.4 kmh 29.62 in1003.0 mb - 0.01 in0.3 mm 0.07 in1.8 mm
05:00 AM 49.6°F9.8°C 48.8°F9.3°C 97% 2.3 mph W3.7 kmh W 4.6 mph7.4 kmh 29.61 in1002.7 mb - 0.01 in0.3 mm 0.07 in1.8 mm
05:15 AM 49.7°F9.8°C 48.9°F9.4°C 97% 2.3 mph W3.7 kmh W 3.5 mph5.6 kmh 29.61 in1002.7 mb - 0.01 in0.3 mm 0.07 in1.8 mm
05:30 AM 49.9°F9.9°C 49.1°F9.5°C 97% 2.3 mph W3.7 kmh W 3.5 mph5.6 kmh 29.60 in1002.4 mb - 0.00 in0.0 mm 0.07 in1.8 mm
05:45 AM 50.2°F10.1°C 49.4°F9.7°C 97% 1.2 mph W1.9 kmh W 1.2 mph1.9 kmh 29.60 in1002.4 mb - 0.00 in0.0 mm 0.07 in1.8 mm
06:00 AM 50.4°F10.2°C 49.6°F9.8°C 97% 1.2 mph W1.9 kmh W 3.5 mph5.6 kmh 29.60 in1002.4 mb - 0.00 in0.0 mm 0.07 in1.8 mm
06:15 AM 51.0°F10.6°C 50.2°F10.1°C 97% 2.3 mph W3.7 kmh W 3.5 mph5.6 kmh 29.61 in1002.7 mb - 0.00 in0.0 mm 0.07 in1.8 mm
06:30 AM 51.4°F10.8°C 50.6°F10.3°C 97% 1.2 mph WSW1.9 kmh WSW 3.5 mph5.6 kmh 29.61 in1002.7 mb - 0.00 in0.0 mm 0.07 in1.8 mm
06:45 AM 51.9°F11.1°C 51.1°F10.6°C 97% 1.2 mph WSW1.9 kmh WSW 3.5 mph5.6 kmh 29.61 in1002.7 mb - 0.00 in0.0 mm 0.07 in1.8 mm
07:00 AM 52.5°F11.4°C 51.7°F10.9°C 97% 2.3 mph WSW3.7 kmh WSW 5.8 mph9.3 kmh 29.61 in1002.7 mb - 0.00 in0.0 mm 0.07 in1.8 mm
07:15 AM 53.2°F11.8°C 52.0°F11.1°C 96% 3.5 mph WSW5.6 kmh WSW 11.5 mph18.5 kmh 29.61 in1002.7 mb - 0.00 in0.0 mm 0.07 in1.8 mm
07:30 AM 53.8°F12.1°C 52.4°F11.3°C 95% 3.5 mph W5.6 kmh W 6.9 mph11.1 kmh 29.61 in1002.7 mb - 0.00 in0.0 mm 0.07 in1.8 mm
07:45 AM 54.1°F12.3°C 52.4°F11.3°C 94% 1.2 mph WSW1.9 kmh WSW 3.5 mph5.6 kmh 29.61 in1002.7 mb - 0.00 in0.0 mm 0.07 in1.8 mm
08:00 AM 54.3°F12.4°C 52.3°F11.3°C 93% 2.3 mph WSW3.7 kmh WSW 3.5 mph5.6 kmh 29.61 in1002.7 mb - 0.00 in0.0 mm 0.07 in1.8 mm
08:15 AM 54.5°F12.5°C 52.5°F11.4°C 93% 1.2 mph W1.9 kmh W 2.3 mph3.7 kmh 29.63 in1003.4 mb - 0.00 in0.0 mm 0.07 in1.8 mm
08:30 AM 54.6°F12.6°C 52.3°F11.3°C 92% 1.2 mph WSW1.9 kmh WSW 4.6 mph7.4 kmh 29.62 in1003.0 mb - 0.00 in0.0 mm 0.07 in1.8 mm
08:45 AM 54.9°F12.7°C 52.6°F11.4°C 92% 2.3 mph W3.7 kmh W 9.2 mph14.8 kmh 29.64 in1003.7 mb - 0.00 in0.0 mm 0.07 in1.8 mm
09:00 AM 55.3°F12.9°C 52.7°F11.5°C 91% 2.3 mph WSW3.7 kmh WSW 3.5 mph5.6 kmh 29.64 in1003.7 mb - 0.00 in0.0 mm 0.07 in1.8 mm
09:15 AM 55.6°F13.1°C 52.7°F11.5°C 90% 3.5 mph W5.6 kmh W 6.9 mph11.1 kmh 29.65 in1004.1 mb - 0.00 in0.0 mm 0.07 in1.8 mm
09:30 AM 55.8°F13.2°C 52.6°F11.4°C 89% 2.3 mph WNW3.7 kmh WNW 9.2 mph14.8 kmh 29.67 in1004.7 mb - 0.00 in0.0 mm 0.07 in1.8 mm
09:45 AM 56.1°F13.4°C 52.3°F11.3°C 87% 6.9 mph W11.1 kmh W 16.1 mph25.9 kmh 29.68 in1005.1 mb - 0.00 in0.0 mm 0.07 in1.8 mm
10:00 AM 56.6°F13.7°C 51.2°F10.7°C 82% 6.9 mph W11.1 kmh W 15.0 mph24.1 kmh 29.68 in1005.1 mb - 0.00 in0.0 mm 0.07 in1.8 mm
10:15 AM 56.7°F13.7°C 50.6°F10.3°C 80% 4.6 mph W7.4 kmh W 6.9 mph11.1 kmh 29.69 in1005.4 mb - 0.00 in0.0 mm 0.07 in1.8 mm
10:30 AM 56.8°F13.8°C 50.4°F10.2°C 79% 4.6 mph WNW7.4 kmh WNW 9.2 mph14.8 kmh 29.70 in1005.8 mb - 0.00 in0.0 mm 0.07 in1.8 mm
10:45 AM 56.8°F13.8°C 49.7°F9.8°C 77% 6.9 mph W11.1 kmh W 8.1 mph13.0 kmh 29.71 in1006.1 mb - 0.00 in0.0 mm 0.07 in1.8 mm
11:00 AM 57.1°F13.9°C 48.9°F9.4°C 74% 9.2 mph WNW14.8 kmh WNW 21.9 mph35.2 kmh 29.71 in1006.1 mb - 0.00 in0.0 mm 0.07 in1.8 mm
11:15 AM 57.4°F14.1°C 47.7°F8.7°C 70% 6.9 mph W11.1 kmh W 10.4 mph16.7 kmh 29.72 in1006.4 mb - 0.00 in0.0 mm 0.07 in1.8 mm
11:30 AM 57.3°F14.1°C 47.6°F8.7°C 70% 4.6 mph WNW7.4 kmh WNW 8.1 mph13.0 kmh 29.75 in1007.5 mb - 0.00 in0.0 mm 0.07 in1.8 mm
11:45 AM 57.3°F14.1°C 46.4°F8.0°C 67% 6.9 mph NW11.1 kmh NW 17.3 mph27.8 kmh 29.75 in1007.5 mb - 0.00 in0.0 mm 0.07 in1.8 mm
12:00 PM 57.1°F13.9°C 45.8°F7.7°C 66% 1.2 mph SE1.9 kmh SE 3.5 mph5.6 kmh 29.77 in1008.1 mb - 0.00 in0.0 mm 0.07 in1.8 mm
12:15 PM 56.7°F13.7°C 43.4°F6.3°C 61% 3.5 mph NW5.6 kmh NW 8.1 mph13.0 kmh 29.78 in1008.5 mb - 0.00 in0.0 mm 0.07 in1.8 mm
12:30 PM 55.9°F13.3°C 42.2°F5.7°C 60% 3.5 mph NW5.6 kmh NW 11.5 mph18.5 kmh 29.78 in1008.5 mb - 0.00 in0.0 mm 0.07 in1.8 mm
12:45 PM 55.3°F12.9°C 42.1°F5.6°C 61% 3.5 mph N5.6 kmh N 6.9 mph11.1 kmh 29.79 in1008.8 mb - 0.00 in0.0 mm 0.07 in1.8 mm
01:00 PM 54.3°F12.4°C 40.3°F4.6°C 59% 3.5 mph NW5.6 kmh NW 5.8 mph9.3 kmh 29.80 in1009.1 mb - 0.00 in0.0 mm 0.07 in1.8 mm
01:15 PM 54.2°F12.3°C 40.2°F4.6°C 59% 2.3 mph NW3.7 kmh NW 10.4 mph16.7 kmh 29.81 in1009.5 mb - 0.00 in0.0 mm 0.07 in1.8 mm
01:30 PM 54.0°F12.2°C 38.6°F3.7°C 56% 5.8 mph NW9.3 kmh NW 9.2 mph14.8 kmh 29.81 in1009.5 mb - 0.00 in0.0 mm 0.07 in1.8 mm
01:45 PM 54.3°F12.4°C 39.4°F4.1°C 57% 3.5 mph WNW5.6 kmh WNW 8.1 mph13.0 kmh 29.81 in1009.5 mb - 0.00 in0.0 mm 0.07 in1.8 mm
02:00 PM 54.6°F12.6°C 39.2°F4.0°C 56% 2.3 mph NNE3.7 kmh NNE 3.5 mph5.6 kmh 29.82 in1009.8 mb - 0.00 in0.0 mm 0.07 in1.8 mm
02:15 PM 54.2°F12.3°C 39.3°F4.1°C 57% 3.5 mph W5.6 kmh W 15.0 mph24.1 kmh 29.82 in1009.8 mb - 0.00 in0.0 mm 0.07 in1.8 mm
02:30 PM 54.2°F12.3°C 39.3°F4.1°C 57% 2.3 mph NW3.7 kmh NW 9.2 mph14.8 kmh 29.83 in1010.2 mb - 0.00 in0.0 mm 0.07 in1.8 mm
02:45 PM 50.2°F10.1°C 37.7°F3.2°C 62% 6.9 mph N11.1 kmh N 11.5 mph18.5 kmh 29.85 in1010.8 mb - 0.00 in0.0 mm 0.07 in1.8 mm
03:00 PM 48.8°F9.3°C 37.6°F3.1°C 65% 2.3 mph N3.7 kmh N 6.9 mph11.1 kmh 29.87 in1011.5 mb - 0.00 in0.0 mm 0.07 in1.8 mm
03:15 PM 48.1°F8.9°C 36.5°F2.5°C 64% 3.5 mph NW5.6 kmh NW 3.5 mph5.6 kmh 29.89 in1012.2 mb - 0.00 in0.0 mm 0.07 in1.8 mm
03:30 PM 48.0°F8.9°C 35.6°F2.0°C 62% 5.8 mph NW9.3 kmh NW 11.5 mph18.5 kmh 29.91 in1012.9 mb - 0.00 in0.0 mm 0.07 in1.8 mm
03:45 PM 48.1°F8.9°C 35.2°F1.8°C 61% 1.2 mph NW1.9 kmh NW 3.5 mph5.6 kmh 29.93 in1013.5 mb - 0.00 in0.0 mm 0.07 in1.8 mm
04:00 PM 47.2°F8.4°C 34.5°F1.4°C 61% 4.6 mph NW7.4 kmh NW 10.4 mph16.7 kmh 29.93 in1013.5 mb - 0.00 in0.0 mm 0.07 in1.8 mm
04:15 PM 46.6°F8.1°C 33.1°F0.6°C 59% 4.6 mph NW7.4 kmh NW 17.3 mph27.8 kmh 29.95 in1014.2 mb - 0.00 in0.0 mm 0.07 in1.8 mm
04:30 PM 46.2°F7.9°C 33.1°F0.6°C 60% 2.3 mph WNW3.7 kmh WNW 3.5 mph5.6 kmh 29.96 in1014.6 mb - 0.00 in0.0 mm 0.07 in1.8 mm
04:45 PM 46.0°F7.8°C 32.9°F0.5°C 60% 1.2 mph WNW1.9 kmh WNW 3.5 mph5.6 kmh 29.97 in1014.9 mb - 0.00 in0.0 mm 0.07 in1.8 mm
05:00 PM 45.7°F7.6°C 32.6°F0.3°C 60% 3.5 mph NW5.6 kmh NW 5.8 mph9.3 kmh 29.98 in1015.2 mb - 0.00 in0.0 mm 0.07 in1.8 mm
05:15 PM 45.1°F7.3°C 32.8°F0.4°C 62% 4.6 mph NNW7.4 kmh NNW 8.1 mph13.0 kmh 29.98 in1015.2 mb - 0.00 in0.0 mm 0.07 in1.8 mm
05:30 PM 44.5°F6.9°C 32.3°F0.2°C 62% 4.6 mph NNW7.4 kmh NNW 8.1 mph13.0 kmh 29.99 in1015.6 mb - 0.00 in0.0 mm 0.07 in1.8 mm
05:45 PM 43.8°F6.6°C 32.4°F0.2°C 64% 2.3 mph NNE3.7 kmh NNE 3.5 mph5.6 kmh 30.00 in1015.9 mb - 0.00 in0.0 mm 0.07 in1.8 mm
06:00 PM 43.5°F6.4°C 32.1°F0.1°C 64% 2.3 mph WNW3.7 kmh WNW 3.5 mph5.6 kmh 30.02 in1016.6 mb - 0.00 in0.0 mm 0.07 in1.8 mm
06:15 PM 43.4°F6.3°C 32.4°F0.2°C 65% 1.2 mph WNW1.9 kmh WNW 2.3 mph3.7 kmh 30.03 in1016.9 mb - 0.01 in0.3 mm 0.08 in2.0 mm
06:30 PM 42.9°F6.1°C 32.3°F0.2°C 66% 2.3 mph N3.7 kmh N 3.5 mph5.6 kmh 30.03 in1016.9 mb - 0.01 in0.3 mm 0.08 in2.0 mm
06:45 PM 42.8°F6.0°C 32.2°F0.1°C 66% Calm Calm 3.5 mph5.6 kmh 30.04 in1017.3 mb - 0.01 in0.3 mm 0.08 in2.0 mm
07:00 PM 42.4°F5.8°C 32.6°F0.3°C 68% 1.2 mph W1.9 kmh W 4.6 mph7.4 kmh 30.05 in1017.6 mb - 0.01 in0.3 mm 0.08 in2.0 mm
07:15 PM 42.3°F5.7°C 32.5°F0.3°C 68% 1.2 mph WNW1.9 kmh WNW 4.6 mph7.4 kmh 30.07 in1018.3 mb - 0.00 in0.0 mm 0.08 in2.0 mm
07:30 PM 42.2°F5.7°C 32.4°F0.2°C 68% 1.2 mph NNW1.9 kmh NNW 4.6 mph7.4 kmh 30.07 in1018.3 mb - 0.00 in0.0 mm 0.08 in2.0 mm
07:45 PM 41.8°F5.4°C 32.4°F0.2°C 69% 1.2 mph NNE1.9 kmh NNE 3.5 mph5.6 kmh 30.07 in1018.3 mb - 0.00 in0.0 mm 0.08 in2.0 mm
08:00 PM 41.8°F5.4°C 32.7°F0.4°C 70% Calm Calm 1.2 mph1.9 kmh 30.08 in1018.6 mb - 0.00 in0.0 mm 0.08 in2.0 mm
08:15 PM 41.9°F5.5°C 32.5°F0.3°C 69% 1.2 mph NW1.9 kmh NW 3.5 mph5.6 kmh 30.10 in1019.3 mb - 0.00 in0.0 mm 0.08 in2.0 mm
08:30 PM 41.7°F5.4°C 32.3°F0.2°C 69% 1.2 mph NNW1.9 kmh NNW 1.2 mph1.9 kmh 30.10 in1019.3 mb - 0.00 in0.0 mm 0.08 in2.0 mm
08:45 PM 41.8°F5.4°C 32.0°F0.0°C 68% 2.3 mph WNW3.7 kmh WNW 6.9 mph11.1 kmh 30.11 in1019.6 mb - 0.00 in0.0 mm 0.08 in2.0 mm
09:00 PM 41.5°F5.3°C 31.4°F-0.3°C 67% 1.2 mph W1.9 kmh W 4.6 mph7.4 kmh 30.11 in1019.6 mb - 0.00 in0.0 mm 0.08 in2.0 mm
09:15 PM 41.2°F5.1°C 31.1°F-0.5°C 67% 1.2 mph NW1.9 kmh NW 3.5 mph5.6 kmh 30.12 in1020.0 mb - 0.00 in0.0 mm 0.08 in2.0 mm
09:30 PM 41.0°F5.0°C 30.5°F-0.8°C 66% 1.2 mph NW1.9 kmh NW 2.3 mph3.7 kmh 30.12 in1020.0 mb - 0.00 in0.0 mm 0.08 in2.0 mm
09:45 PM 40.9°F4.9°C 30.0°F-1.1°C 65% Calm Calm 3.5 mph5.6 kmh 30.13 in1020.3 mb - 0.00 in0.0 mm 0.08 in2.0 mm
10:00 PM 40.6°F4.8°C 29.7°F-1.3°C 65% 1.2 mph WNW1.9 kmh WNW 2.3 mph3.7 kmh 30.13 in1020.3 mb - 0.00 in0.0 mm 0.08 in2.0 mm
10:15 PM 40.4°F4.7°C 29.6°F-1.3°C 65% Calm Calm 1.2 mph1.9 kmh 30.13 in1020.3 mb - 0.00 in0.0 mm 0.08 in2.0 mm
10:30 PM 40.2°F4.6°C 29.0°F-1.7°C 64% 4.6 mph N7.4 kmh N 5.8 mph9.3 kmh 30.13 in1020.3 mb - 0.00 in0.0 mm 0.08 in2.0 mm
10:45 PM 40.1°F4.5°C 28.5°F-1.9°C 63% 1.2 mph NNW1.9 kmh NNW 3.5 mph5.6 kmh 30.13 in1020.3 mb - 0.00 in0.0 mm 0.08 in2.0 mm
11:00 PM 40.1°F4.5°C 28.1°F-2.2°C 62% 1.2 mph NNW1.9 kmh NNW 3.5 mph5.6 kmh 30.12 in1020.0 mb - 0.00 in0.0 mm 0.08 in2.0 mm
11:15 PM 39.9°F4.4°C 28.3°F-2.1°C 63% 1.2 mph WNW1.9 kmh WNW 3.5 mph5.6 kmh 30.12 in1020.0 mb - 0.00 in0.0 mm 0.08 in2.0 mm
11:30 PM 39.8°F4.3°C 28.2°F-2.1°C 63% Calm Calm 1.2 mph1.9 kmh 30.13 in1020.3 mb - 0.00 in0.0 mm 0.08 in2.0 mm
11:45 PM 39.3°F4.1°C 28.5°F-1.9°C 65% 1.2 mph W1.9 kmh W 2.3 mph3.7 kmh 30.14 in1020.7 mb - 0.00 in0.0 mm 0.08 in2.0 mm